sensor_id;sensor_type;location;lat;lon;timestamp;noise_LAeq;noise_LA_min;noise_LA_max;noise_LA01;noise_LA95
61095;Laerm;20450;49.074;9.158;2022-11-30T00:01:09;38.60;35.04;40.98;;
61095;Laerm;20450;49.074;9.158;2022-11-30T00:03:37;38.59;35.31;40.89;;
61095;Laerm;20450;49.074;9.158;2022-11-30T00:06:05;38.75;34.69;41.30;;
61095;Laerm;20450;49.074;9.158;2022-11-30T00:08:32;38.65;35.66;41.61;;
61095;Laerm;20450;49.074;9.158;2022-11-30T00:11:07;38.97;35.86;42.93;;
61095;Laerm;20450;49.074;9.158;2022-11-30T00:13:35;38.72;35.66;41.46;;
61095;Laerm;20450;49.074;9.158;2022-11-30T00:16:02;38.80;35.66;41.41;;
61095;Laerm;20450;49.074;9.158;2022-11-30T00:18:29;38.87;35.66;42.29;;
61095;Laerm;20450;49.074;9.158;2022-11-30T00:20:59;39.19;34.69;42.59;;
61095;Laerm;20450;49.074;9.158;2022-11-30T00:23:26;39.64;34.69;45.17;;
61095;Laerm;20450;49.074;9.158;2022-11-30T00:26:01;38.69;35.36;42.09;;
61095;Laerm;20450;49.074;9.158;2022-11-30T00:28:29;38.71;35.04;41.06;;
61095;Laerm;20450;49.074;9.158;2022-11-30T00:30:57;38.74;35.66;41.30;;
61095;Laerm;20450;49.074;9.158;2022-11-30T00:33:24;38.60;35.04;41.06;;
61095;Laerm;20450;49.074;9.158;2022-11-30T00:35:58;38.85;35.36;43.34;;
61095;Laerm;20450;49.074;9.158;2022-11-30T00:38:27;39.13;35.04;43.63;;
61095;Laerm;20450;49.074;9.158;2022-11-30T00:40:54;38.65;35.66;41.68;;
61095;Laerm;20450;49.074;9.158;2022-11-30T00:43:23;38.78;35.66;41.46;;
61095;Laerm;20450;49.074;9.158;2022-11-30T00:45:50;38.61;35.04;41.06;;
61095;Laerm;20450;49.074;9.158;2022-11-30T00:48:17;38.55;35.04;41.38;;
61095;Laerm;20450;49.074;9.158;2022-11-30T00:50:44;38.54;34.31;41.06;;
61095;Laerm;20450;49.074;9.158;2022-11-30T00:53:11;38.75;32.93;41.46;;
61095;Laerm;20450;49.074;9.158;2022-11-30T00:55:38;38.65;35.66;40.88;;
61095;Laerm;20450;49.074;9.158;2022-11-30T00:58:05;38.84;35.04;42.29;;
61095;Laerm;20450;49.074;9.158;2022-11-30T01:00:34;38.55;35.04;41.30;;
61095;Laerm;20450;49.074;9.158;2022-11-30T01:03:01;38.94;34.69;42.35;;
61095;Laerm;20450;49.074;9.158;2022-11-30T01:05:28;38.80;35.04;41.53;;
61095;Laerm;20450;49.074;9.158;2022-11-30T01:07:59;38.55;35.36;40.71;;
61095;Laerm;20450;49.074;9.158;2022-11-30T01:10:26;39.05;35.04;44.62;;
61095;Laerm;20450;49.074;9.158;2022-11-30T01:12:53;38.65;35.36;41.19;;
61095;Laerm;20450;49.074;9.158;2022-11-30T01:15:21;39.37;34.69;44.27;;
61095;Laerm;20450;49.074;9.158;2022-11-30T01:17:49;38.61;35.36;41.22;;
61095;Laerm;20450;49.074;9.158;2022-11-30T01:20:17;38.49;35.36;40.98;;
61095;Laerm;20450;49.074;9.158;2022-11-30T01:22:44;38.62;35.36;42.22;;
61095;Laerm;20450;49.074;9.158;2022-11-30T01:25:11;38.54;35.36;40.98;;
61095;Laerm;20450;49.074;9.158;2022-11-30T01:27:39;39.37;35.66;44.80;;
61095;Laerm;20450;49.074;9.158;2022-11-30T01:30:08;38.59;35.36;41.68;;
61095;Laerm;20450;49.074;9.158;2022-11-30T01:32:36;38.43;35.04;40.71;;
61095;Laerm;20450;49.074;9.158;2022-11-30T01:35:05;39.78;35.94;43.58;;
61095;Laerm;20450;49.074;9.158;2022-11-30T01:37:33;39.03;35.36;46.52;;
61095;Laerm;20450;49.074;9.158;2022-11-30T01:40:00;38.55;35.36;41.22;;
61095;Laerm;20450;49.074;9.158;2022-11-30T01:42:28;38.58;35.36;42.76;;
61095;Laerm;20450;49.074;9.158;2022-11-30T01:44:56;38.56;35.36;40.80;;
61095;Laerm;20450;49.074;9.158;2022-11-30T01:47:28;38.63;35.36;42.59;;
61095;Laerm;20450;49.074;9.158;2022-11-30T01:50:05;38.48;34.31;41.06;;
61095;Laerm;20450;49.074;9.158;2022-11-30T01:52:37;38.51;35.36;41.11;;
61095;Laerm;20450;49.074;9.158;2022-11-30T01:55:15;38.59;35.66;43.34;;
61095;Laerm;20450;49.074;9.158;2022-11-30T01:57:48;38.70;35.36;41.89;;
61095;Laerm;20450;49.074;9.158;2022-11-30T02:00:18;38.47;35.01;40.80;;
61095;Laerm;20450;49.074;9.158;2022-11-30T02:02:58;38.51;35.04;41.53;;
61095;Laerm;20450;49.074;9.158;2022-11-30T02:05:29;38.35;34.69;40.89;;
61095;Laerm;20450;49.074;9.158;2022-11-30T02:07:57;38.44;34.31;42.47;;
61095;Laerm;20450;49.074;9.158;2022-11-30T02:10:27;38.85;35.04;43.49;;
61095;Laerm;20450;49.074;9.158;2022-11-30T02:13:22;38.39;35.36;40.80;;
61095;Laerm;20450;49.074;9.158;2022-11-30T02:16:06;38.65;35.36;42.76;;
61095;Laerm;20450;49.074;9.158;2022-11-30T02:18:49;38.41;34.69;40.89;;
61095;Laerm;20450;49.074;9.158;2022-11-30T02:21:25;38.38;35.04;40.71;;
61095;Laerm;20450;49.074;9.158;2022-11-30T02:24:44;38.44;35.36;40.71;;
61095;Laerm;20450;49.074;9.158;2022-11-30T02:27:39;38.50;35.31;41.30;;
61095;Laerm;20450;49.074;9.158;2022-11-30T02:30:16;38.50;34.69;41.14;;
61095;Laerm;20450;49.074;9.158;2022-11-30T02:32:50;38.50;35.04;40.80;;
61095;Laerm;20450;49.074;9.158;2022-11-30T02:35:25;39.24;35.36;43.04;;
61095;Laerm;20450;49.074;9.158;2022-11-30T02:37:55;38.41;35.36;40.80;;
61095;Laerm;20450;49.074;9.158;2022-11-30T02:40:23;38.63;35.36;41.30;;
61095;Laerm;20450;49.074;9.158;2022-11-30T02:42:53;38.45;35.04;45.88;;
61095;Laerm;20450;49.074;9.158;2022-11-30T02:45:35;38.62;35.04;42.65;;
61095;Laerm;20450;49.074;9.158;2022-11-30T02:48:08;38.40;34.69;40.62;;
61095;Laerm;20450;49.074;9.158;2022-11-30T02:50:43;38.34;34.31;40.71;;
61095;Laerm;20450;49.074;9.158;2022-11-30T02:53:11;38.35;34.69;40.71;;
61095;Laerm;20450;49.074;9.158;2022-11-30T02:55:38;38.36;35.04;40.71;;
61095;Laerm;20450;49.074;9.158;2022-11-30T02:58:05;38.55;35.31;43.39;;
61095;Laerm;20450;49.074;9.158;2022-11-30T03:00:34;38.35;35.04;40.71;;
61095;Laerm;20450;49.074;9.158;2022-11-30T03:03:01;38.41;35.36;40.53;;
61095;Laerm;20450;49.074;9.158;2022-11-30T03:05:28;38.73;34.69;42.93;;
61095;Laerm;20450;49.074;9.158;2022-11-30T03:07:55;38.47;35.04;48.28;;
61095;Laerm;20450;49.074;9.158;2022-11-30T03:10:22;38.72;34.69;41.53;;
61095;Laerm;20450;49.074;9.158;2022-11-30T03:12:49;38.38;35.04;40.89;;
61095;Laerm;20450;49.074;9.158;2022-11-30T03:15:16;38.70;35.66;42.22;;
61095;Laerm;20450;49.074;9.158;2022-11-30T03:17:45;38.45;35.04;40.89;;
61095;Laerm;20450;49.074;9.158;2022-11-30T03:20:12;38.56;35.36;41.38;;
61095;Laerm;20450;49.074;9.158;2022-11-30T03:22:39;38.50;35.04;40.80;;
61095;Laerm;20450;49.074;9.158;2022-11-30T03:25:07;39.50;35.36;43.77;;
61095;Laerm;20450;49.074;9.158;2022-11-30T03:27:34;38.65;35.66;41.14;;
61095;Laerm;20450;49.074;9.158;2022-11-30T03:30:01;38.65;35.36;41.46;;
61095;Laerm;20450;49.074;9.158;2022-11-30T03:32:28;39.04;34.69;46.40;;
61095;Laerm;20450;49.074;9.158;2022-11-30T03:34:56;39.12;35.36;42.59;;
61095;Laerm;20450;49.074;9.158;2022-11-30T03:37:23;38.57;35.66;41.14;;
61095;Laerm;20450;49.074;9.158;2022-11-30T03:39:50;39.32;35.36;50.56;;
61095;Laerm;20450;49.074;9.158;2022-11-30T03:42:24;39.05;35.36;43.09;;
61095;Laerm;20450;49.074;9.158;2022-11-30T03:44:51;39.74;36.20;43.34;;
61095;Laerm;20450;49.074;9.158;2022-11-30T03:47:18;38.95;35.94;44.11;;
61095;Laerm;20450;49.074;9.158;2022-11-30T03:49:45;39.23;35.36;42.29;;
61095;Laerm;20450;49.074;9.158;2022-11-30T03:52:13;39.10;34.31;42.59;;
61095;Laerm;20450;49.074;9.158;2022-11-30T03:54:40;39.37;35.36;43.04;;
61095;Laerm;20450;49.074;9.158;2022-11-30T03:57:07;39.33;35.66;42.47;;
61095;Laerm;20450;49.074;9.158;2022-11-30T03:59:34;39.40;35.66;49.06;;
61095;Laerm;20450;49.074;9.158;2022-11-30T04:02:02;38.71;35.36;41.38;;
61095;Laerm;20450;49.074;9.158;2022-11-30T04:04:29;38.94;35.94;42.41;;
61095;Laerm;20450;49.074;9.158;2022-11-30T04:06:56;39.04;35.94;42.41;;
61095;Laerm;20450;49.074;9.158;2022-11-30T04:09:24;39.17;35.66;41.89;;
61095;Laerm;20450;49.074;9.158;2022-11-30T04:11:51;39.33;35.94;42.41;;
61095;Laerm;20450;49.074;9.158;2022-11-30T04:14:18;39.01;35.66;41.75;;
61095;Laerm;20450;49.074;9.158;2022-11-30T04:16:45;39.40;35.94;43.09;;
61095;Laerm;20450;49.074;9.158;2022-11-30T04:19:11;39.62;36.45;43.24;;
61095;Laerm;20450;49.074;9.158;2022-11-30T04:21:38;39.70;35.94;44.47;;
61095;Laerm;20450;49.074;9.158;2022-11-30T04:24:07;39.55;36.20;46.40;;
61095;Laerm;20450;49.074;9.158;2022-11-30T04:26:35;39.69;35.94;42.98;;
61095;Laerm;20450;49.074;9.158;2022-11-30T04:29:02;39.50;35.94;42.41;;
61095;Laerm;20450;49.074;9.158;2022-11-30T04:31:30;39.89;35.94;44.42;;
61095;Laerm;20450;49.074;9.158;2022-11-30T04:33:57;39.51;35.66;45.48;;
61095;Laerm;20450;49.074;9.158;2022-11-30T04:36:24;39.56;36.20;42.71;;
61095;Laerm;20450;49.074;9.158;2022-11-30T04:38:51;39.77;35.36;42.53;;
61095;Laerm;20450;49.074;9.158;2022-11-30T04:41:18;39.75;36.20;43.29;;
61095;Laerm;20450;49.074;9.158;2022-11-30T04:43:46;39.70;36.69;42.09;;
61095;Laerm;20450;49.074;9.158;2022-11-30T04:46:13;39.74;35.36;43.14;;
61095;Laerm;20450;49.074;9.158;2022-11-30T04:48:41;39.97;35.94;46.52;;
61095;Laerm;20450;49.074;9.158;2022-11-30T04:51:08;39.79;35.36;42.76;;
61095;Laerm;20450;49.074;9.158;2022-11-30T04:53:36;40.73;36.45;44.42;;
61095;Laerm;20450;49.074;9.158;2022-11-30T04:56:05;40.13;36.20;44.23;;
61095;Laerm;20450;49.074;9.158;2022-11-30T04:58:32;40.26;36.91;44.31;;
61095;Laerm;20450;49.074;9.158;2022-11-30T05:01:00;39.77;35.94;43.99;;
61095;Laerm;20450;49.074;9.158;2022-11-30T05:03:27;39.32;35.94;42.47;;
61095;Laerm;20450;49.074;9.158;2022-11-30T05:05:54;39.86;35.04;44.31;;
61095;Laerm;20450;49.074;9.158;2022-11-30T05:08:21;39.46;35.94;41.68;;
61095;Laerm;20450;49.074;9.158;2022-11-30T05:10:51;40.28;37.12;47.26;;
61095;Laerm;20450;49.074;9.158;2022-11-30T05:13:19;39.75;36.69;43.04;;
61095;Laerm;20450;49.074;9.158;2022-11-30T05:15:46;40.02;36.45;42.93;;
61095;Laerm;20450;49.074;9.158;2022-11-30T05:18:15;40.31;36.69;47.91;;
61095;Laerm;20450;49.074;9.158;2022-11-30T05:20:46;40.51;37.32;45.07;;
61095;Laerm;20450;49.074;9.158;2022-11-30T05:23:14;40.43;37.12;46.23;;
61095;Laerm;20450;49.074;9.158;2022-11-30T05:25:41;40.12;35.66;44.90;;
61095;Laerm;20450;49.074;9.158;2022-11-30T05:28:08;40.77;37.88;48.80;;
61095;Laerm;20450;49.074;9.158;2022-11-30T05:30:35;40.41;37.12;43.86;;
61095;Laerm;20450;49.074;9.158;2022-11-30T05:33:03;40.33;36.91;43.19;;
61095;Laerm;20450;49.074;9.158;2022-11-30T05:35:31;40.14;36.91;44.69;;
61095;Laerm;20450;49.074;9.158;2022-11-30T05:37:58;40.58;37.12;44.03;;
61095;Laerm;20450;49.074;9.158;2022-11-30T05:40:25;40.67;36.91;44.58;;
61095;Laerm;20450;49.074;9.158;2022-11-30T05:42:54;40.58;36.45;49.41;;
61095;Laerm;20450;49.074;9.158;2022-11-30T05:45:22;41.00;37.70;43.81;;
61095;Laerm;20450;49.074;9.158;2022-11-30T05:47:49;40.67;37.52;45.36;;
61095;Laerm;20450;49.074;9.158;2022-11-30T05:50:17;41.12;37.12;45.17;;
61095;Laerm;20450;49.074;9.158;2022-11-30T05:52:45;40.75;37.52;47.77;;
61095;Laerm;20450;49.074;9.158;2022-11-30T05:55:12;42.36;37.32;62.13;;
61095;Laerm;20450;49.074;9.158;2022-11-30T05:57:40;40.42;37.12;50.24;;
61095;Laerm;20450;49.074;9.158;2022-11-30T06:00:09;40.80;36.20;51.89;;
61095;Laerm;20450;49.074;9.158;2022-11-30T06:02:38;40.99;37.32;51.66;;
61095;Laerm;20450;49.074;9.158;2022-11-30T06:05:07;40.49;37.12;47.12;;
61095;Laerm;20450;49.074;9.158;2022-11-30T06:07:34;40.53;36.69;44.90;;
61095;Laerm;20450;49.074;9.158;2022-11-30T06:10:03;44.45;36.45;57.55;;
61095;Laerm;20450;49.074;9.158;2022-11-30T06:12:30;40.41;36.91;45.11;;
61095;Laerm;20450;49.074;9.158;2022-11-30T06:14:57;40.36;36.69;47.65;;
61095;Laerm;20450;49.074;9.158;2022-11-30T06:17:24;40.61;37.12;45.99;;
61095;Laerm;20450;49.074;9.158;2022-11-30T06:19:51;39.96;36.45;44.19;;
61095;Laerm;20450;49.074;9.158;2022-11-30T06:22:18;40.55;37.12;56.00;;
61095;Laerm;20450;49.074;9.158;2022-11-30T06:24:45;41.21;37.32;48.08;;
61095;Laerm;20450;49.074;9.158;2022-11-30T06:27:13;40.60;37.32;47.57;;
61095;Laerm;20450;49.074;9.158;2022-11-30T06:29:41;40.84;37.12;47.86;;
61095;Laerm;20450;49.074;9.158;2022-11-30T06:32:08;40.92;37.32;46.25;;
61095;Laerm;20450;49.074;9.158;2022-11-30T06:34:35;40.41;37.32;44.54;;
61095;Laerm;20450;49.074;9.158;2022-11-30T06:37:02;42.34;38.05;54.26;;
61095;Laerm;20450;49.074;9.158;2022-11-30T06:39:29;40.77;37.52;45.75;;
61095;Laerm;20450;49.074;9.158;2022-11-30T06:42:17;40.65;37.12;50.41;;
61095;Laerm;20450;49.074;9.158;2022-11-30T06:44:44;40.39;36.69;45.14;;
61095;Laerm;20450;49.074;9.158;2022-11-30T06:47:11;40.63;36.91;45.80;;
61095;Laerm;20450;49.074;9.158;2022-11-30T06:49:38;40.74;37.12;44.69;;
61095;Laerm;20450;49.074;9.158;2022-11-30T06:52:05;40.68;37.12;46.20;;
61095;Laerm;20450;49.074;9.158;2022-11-30T06:54:33;40.77;36.91;44.65;;
61095;Laerm;20450;49.074;9.158;2022-11-30T06:56:59;40.38;37.12;44.62;;
61095;Laerm;20450;49.074;9.158;2022-11-30T06:59:28;41.92;37.52;50.19;;
61095;Laerm;20450;49.074;9.158;2022-11-30T07:01:55;41.23;37.12;53.33;;
61095;Laerm;20450;49.074;9.158;2022-11-30T07:04:22;40.18;36.20;44.03;;
61095;Laerm;20450;49.074;9.158;2022-11-30T07:06:49;40.53;37.32;44.73;;
61095;Laerm;20450;49.074;9.158;2022-11-30T07:09:16;40.42;36.91;46.30;;
61095;Laerm;20450;49.074;9.158;2022-11-30T07:11:43;40.25;37.12;44.54;;
61095;Laerm;20450;49.074;9.158;2022-11-30T07:14:10;41.16;38.05;47.08;;
61095;Laerm;20450;49.074;9.158;2022-11-30T07:16:38;41.77;38.21;53.37;;
61095;Laerm;20450;49.074;9.158;2022-11-30T07:19:05;42.87;39.68;54.66;;
61095;Laerm;20450;49.074;9.158;2022-11-30T07:21:33;41.71;38.95;51.55;;
61095;Laerm;20450;49.074;9.158;2022-11-30T07:24:00;42.09;39.21;46.82;;
61095;Laerm;20450;49.074;9.158;2022-11-30T07:26:28;42.23;38.67;51.11;;
61095;Laerm;20450;49.074;9.158;2022-11-30T07:28:55;41.74;38.95;49.02;;
61095;Laerm;20450;49.074;9.158;2022-11-30T07:31:24;41.15;38.37;50.65;;
61095;Laerm;20450;49.074;9.158;2022-11-30T07:33:54;41.11;38.32;45.45;;
61095;Laerm;20450;49.074;9.158;2022-11-30T07:36:23;41.82;38.05;47.90;;
61095;Laerm;20450;49.074;9.158;2022-11-30T07:38:51;41.43;38.21;49.62;;
61095;Laerm;20450;49.074;9.158;2022-11-30T07:41:18;41.40;38.37;45.97;;
61095;Laerm;20450;49.074;9.158;2022-11-30T07:43:47;40.82;37.88;46.25;;
61095;Laerm;20450;49.074;9.158;2022-11-30T07:46:15;42.53;38.37;52.45;;
61095;Laerm;20450;49.074;9.158;2022-11-30T07:48:44;41.24;38.21;49.65;;
61095;Laerm;20450;49.074;9.158;2022-11-30T07:51:15;42.02;39.21;49.24;;
61095;Laerm;20450;49.074;9.158;2022-11-30T07:53:43;40.98;37.88;55.67;;
61095;Laerm;20450;49.074;9.158;2022-11-30T07:56:14;41.46;38.67;48.02;;
61095;Laerm;20450;49.074;9.158;2022-11-30T07:58:42;41.88;38.67;51.46;;
61095;Laerm;20450;49.074;9.158;2022-11-30T08:01:13;41.74;38.67;50.80;;
61095;Laerm;20450;49.074;9.158;2022-11-30T08:03:41;41.39;38.52;46.15;;
61095;Laerm;20450;49.074;9.158;2022-11-30T08:06:10;45.98;38.37;59.76;;
61095;Laerm;20450;49.074;9.158;2022-11-30T08:08:41;43.22;38.21;52.02;;
61095;Laerm;20450;49.074;9.158;2022-11-30T08:11:12;44.74;39.21;54.92;;
61095;Laerm;20450;49.074;9.158;2022-11-30T08:13:39;43.77;36.69;60.76;;
61095;Laerm;20450;49.074;9.158;2022-11-30T08:16:10;41.40;37.52;50.64;;
61095;Laerm;20450;49.074;9.158;2022-11-30T08:18:39;41.35;37.70;50.80;;
61095;Laerm;20450;49.074;9.158;2022-11-30T08:21:09;42.47;38.52;57.47;;
61095;Laerm;20450;49.074;9.158;2022-11-30T08:23:40;41.29;37.88;49.94;;
61095;Laerm;20450;49.074;9.158;2022-11-30T08:26:11;40.43;36.69;44.73;;
61095;Laerm;20450;49.074;9.158;2022-11-30T08:28:39;41.33;37.52;44.80;;
61095;Laerm;20450;49.074;9.158;2022-11-30T08:31:10;41.49;38.05;44.65;;
61095;Laerm;20450;49.074;9.158;2022-11-30T08:33:38;40.90;37.52;47.02;;
61095;Laerm;20450;49.074;9.158;2022-11-30T08:36:08;41.70;38.52;51.87;;
61095;Laerm;20450;49.074;9.158;2022-11-30T08:38:36;42.30;39.46;48.61;;
61095;Laerm;20450;49.074;9.158;2022-11-30T08:41:06;41.95;38.95;48.15;;
61095;Laerm;20450;49.074;9.158;2022-11-30T08:43:34;41.65;38.21;54.90;;
61095;Laerm;20450;49.074;9.158;2022-11-30T08:46:02;42.00;37.88;46.35;;
61095;Laerm;20450;49.074;9.158;2022-11-30T08:48:48;42.17;39.70;48.48;;
61095;Laerm;20450;49.074;9.158;2022-11-30T08:51:17;42.51;39.08;51.17;;
61095;Laerm;20450;49.074;9.158;2022-11-30T08:53:45;42.12;38.67;50.25;;
61095;Laerm;20450;49.074;9.158;2022-11-30T08:56:16;41.51;38.52;53.94;;
61095;Laerm;20450;49.074;9.158;2022-11-30T08:58:47;42.16;39.21;45.51;;
61095;Laerm;20450;49.074;9.158;2022-11-30T09:01:19;41.68;38.37;49.59;;
61095;Laerm;20450;49.074;9.158;2022-11-30T09:03:50;41.74;38.52;51.81;;
61095;Laerm;20450;49.074;9.158;2022-11-30T09:06:21;42.15;38.81;51.40;;
61095;Laerm;20450;49.074;9.158;2022-11-30T09:08:50;41.55;38.52;55.56;;
61095;Laerm;20450;49.074;9.158;2022-11-30T09:11:22;42.52;39.70;46.95;;
61095;Laerm;20450;49.074;9.158;2022-11-30T09:13:52;42.56;39.46;47.50;;
61095;Laerm;20450;49.074;9.158;2022-11-30T09:16:20;41.97;39.21;48.78;;
61095;Laerm;20450;49.074;9.158;2022-11-30T09:18:49;42.32;39.46;48.64;;
61095;Laerm;20450;49.074;9.158;2022-11-30T09:21:19;41.65;38.81;48.90;;
61095;Laerm;20450;49.074;9.158;2022-11-30T09:23:47;42.46;39.21;51.37;;
61095;Laerm;20450;49.074;9.158;2022-11-30T09:26:19;42.58;40.53;52.11;;
61095;Laerm;20450;49.074;9.158;2022-11-30T09:28:47;42.64;40.43;47.86;;
61095;Laerm;20450;49.074;9.158;2022-11-30T09:31:16;42.50;39.46;48.63;;
61095;Laerm;20450;49.074;9.158;2022-11-30T09:33:44;41.84;39.08;48.51;;
61095;Laerm;20450;49.074;9.158;2022-11-30T09:36:14;41.82;39.46;47.14;;
61095;Laerm;20450;49.074;9.158;2022-11-30T09:38:41;41.63;39.08;45.27;;
61095;Laerm;20450;49.074;9.158;2022-11-30T09:41:37;42.13;39.21;57.68;;
61095;Laerm;20450;49.074;9.158;2022-11-30T09:44:18;41.92;38.81;53.85;;
61095;Laerm;20450;49.074;9.158;2022-11-30T09:47:03;41.46;38.52;49.11;;
61095;Laerm;20450;49.074;9.158;2022-11-30T09:49:34;41.88;38.37;50.05;;
61095;Laerm;20450;49.074;9.158;2022-11-30T09:52:09;41.38;38.52;46.20;;
61095;Laerm;20450;49.074;9.158;2022-11-30T09:54:42;41.64;38.37;50.59;;
61095;Laerm;20450;49.074;9.158;2022-11-30T09:57:28;42.31;39.70;47.26;;
61095;Laerm;20450;49.074;9.158;2022-11-30T09:59:58;41.65;38.37;51.16;;
61095;Laerm;20450;49.074;9.158;2022-11-30T10:02:29;42.30;39.08;49.16;;
61095;Laerm;20450;49.074;9.158;2022-11-30T10:04:59;42.12;39.70;47.28;;
61095;Laerm;20450;49.074;9.158;2022-11-30T10:07:47;41.94;39.08;47.67;;
61095;Laerm;20450;49.074;9.158;2022-11-30T10:10:30;42.12;39.08;48.80;;
61095;Laerm;20450;49.074;9.158;2022-11-30T10:13:21;42.02;38.67;59.37;;
61095;Laerm;20450;49.074;9.158;2022-11-30T10:16:08;41.52;38.95;46.20;;
61095;Laerm;20450;49.074;9.158;2022-11-30T10:18:50;42.17;39.21;47.96;;
61095;Laerm;20450;49.074;9.158;2022-11-30T10:21:38;42.11;39.58;44.97;;
61095;Laerm;20450;49.074;9.158;2022-11-30T10:24:25;42.68;39.70;50.04;;
61095;Laerm;20450;49.074;9.158;2022-11-30T10:26:57;42.54;39.46;50.17;;
61095;Laerm;20450;49.074;9.158;2022-11-30T10:29:31;42.80;39.70;50.98;;
61095;Laerm;20450;49.074;9.158;2022-11-30T10:32:12;41.90;38.95;52.29;;
61095;Laerm;20450;49.074;9.158;2022-11-30T10:34:42;42.11;38.81;48.84;;
61095;Laerm;20450;49.074;9.158;2022-11-30T10:37:19;41.26;37.70;47.42;;
61095;Laerm;20450;49.074;9.158;2022-11-30T10:39:58;41.18;38.05;45.27;;
61095;Laerm;20450;49.074;9.158;2022-11-30T10:42:33;41.27;37.52;48.07;;
61095;Laerm;20450;49.074;9.158;2022-11-30T10:45:10;41.64;37.70;54.27;;
61095;Laerm;20450;49.074;9.158;2022-11-30T10:47:47;41.86;37.70;51.97;;
61095;Laerm;20450;49.074;9.158;2022-11-30T10:50:16;41.23;37.88;51.28;;
61095;Laerm;20450;49.074;9.158;2022-11-30T10:52:49;41.24;36.69;46.18;;
61095;Laerm;20450;49.074;9.158;2022-11-30T10:55:20;41.35;37.88;45.57;;
61095;Laerm;20450;49.074;9.158;2022-11-30T10:57:53;41.16;37.32;50.25;;
61095;Laerm;20450;49.074;9.158;2022-11-30T11:00:25;41.21;37.70;52.02;;
61095;Laerm;20450;49.074;9.158;2022-11-30T11:02:51;41.29;37.70;45.48;;
61095;Laerm;20450;49.074;9.158;2022-11-30T11:05:22;41.06;37.70;55.90;;
61095;Laerm;20450;49.074;9.158;2022-11-30T11:07:56;41.64;37.32;47.00;;
61095;Laerm;20450;49.074;9.158;2022-11-30T11:10:35;41.96;37.88;54.08;;
61095;Laerm;20450;49.074;9.158;2022-11-30T11:13:15;41.53;37.32;52.07;;
61095;Laerm;20450;49.074;9.158;2022-11-30T11:15:57;40.98;37.88;44.11;;
61095;Laerm;20450;49.074;9.158;2022-11-30T11:18:27;40.56;36.45;44.90;;
61095;Laerm;20450;49.074;9.158;2022-11-30T11:21:02;40.84;37.70;43.81;;
61095;Laerm;20450;49.074;9.158;2022-11-30T11:23:35;41.65;38.87;45.36;;
61095;Laerm;20450;49.074;9.158;2022-11-30T11:26:05;42.63;39.81;47.91;;
61095;Laerm;20450;49.074;9.158;2022-11-30T11:28:35;41.77;38.67;45.72;;
61095;Laerm;20450;49.074;9.158;2022-11-30T11:31:32;41.98;39.08;45.97;;
61095;Laerm;20450;49.074;9.158;2022-11-30T11:34:02;42.63;39.34;53.65;;
61095;Laerm;20450;49.074;9.158;2022-11-30T11:36:33;41.84;39.34;48.12;;
61095;Laerm;20450;49.074;9.158;2022-11-30T11:39:00;41.53;37.88;47.46;;
61095;Laerm;20450;49.074;9.158;2022-11-30T11:41:31;41.46;38.52;44.35;;
61095;Laerm;20450;49.074;9.158;2022-11-30T11:44:03;41.14;38.37;44.27;;
61095;Laerm;20450;49.074;9.158;2022-11-30T11:46:37;41.92;38.05;45.48;;
61095;Laerm;20450;49.074;9.158;2022-11-30T11:49:09;41.35;38.21;46.38;;
61095;Laerm;20450;49.074;9.158;2022-11-30T11:51:43;41.49;37.88;47.42;;
61095;Laerm;20450;49.074;9.158;2022-11-30T11:54:22;41.95;38.52;47.88;;
61095;Laerm;20450;49.074;9.158;2022-11-30T11:56:54;42.64;39.81;55.00;;
61095;Laerm;20450;49.074;9.158;2022-11-30T11:59:36;42.36;39.08;46.57;;
61095;Laerm;20450;49.074;9.158;2022-11-30T12:02:30;42.16;39.46;45.36;;
61095;Laerm;20450;49.074;9.158;2022-11-30T12:05:08;42.06;38.95;45.75;;
61095;Laerm;20450;49.074;9.158;2022-11-30T12:07:45;42.06;39.57;53.18;;
61095;Laerm;20450;49.074;9.158;2022-11-30T12:10:27;42.29;39.70;52.06;;
61095;Laerm;20450;49.074;9.158;2022-11-30T12:13:19;43.46;38.52;57.18;;
61095;Laerm;20450;49.074;9.158;2022-11-30T12:16:07;42.22;39.46;52.86;;
61095;Laerm;20450;49.074;9.158;2022-11-30T12:18:49;42.04;39.46;45.48;;
61095;Laerm;20450;49.074;9.158;2022-11-30T12:21:36;41.88;38.37;50.58;;
61095;Laerm;20450;49.074;9.158;2022-11-30T12:24:37;41.48;38.52;49.60;;
61095;Laerm;20450;49.074;9.158;2022-11-30T12:27:21;42.33;39.08;56.29;;
61095;Laerm;20450;49.074;9.158;2022-11-30T12:30:04;43.03;40.08;58.89;;
61095;Laerm;20450;49.074;9.158;2022-11-30T12:32:58;41.98;39.08;53.80;;
61095;Laerm;20450;49.074;9.158;2022-11-30T12:35:41;42.55;38.81;59.64;;
61095;Laerm;20450;49.074;9.158;2022-11-30T12:38:25;41.37;38.67;49.70;;
61095;Laerm;20450;49.074;9.158;2022-11-30T12:41:06;41.89;38.37;59.26;;
61095;Laerm;20450;49.074;9.158;2022-11-30T12:43:52;42.17;38.95;47.96;;
61095;Laerm;20450;49.074;9.158;2022-11-30T12:46:28;41.63;38.21;51.78;;
61095;Laerm;20450;49.074;9.158;2022-11-30T12:49:20;41.06;37.70;47.72;;
61095;Laerm;20450;49.074;9.158;2022-11-30T12:52:02;40.99;37.70;45.66;;
61095;Laerm;20450;49.074;9.158;2022-11-30T12:54:49;41.67;38.81;46.54;;
61095;Laerm;20450;49.074;9.158;2022-11-30T12:57:23;41.89;39.34;44.27;;
61095;Laerm;20450;49.074;9.158;2022-11-30T13:00:03;41.57;38.21;50.83;;
61095;Laerm;20450;49.074;9.158;2022-11-30T13:03:00;41.86;39.34;44.94;;
61095;Laerm;20450;49.074;9.158;2022-11-30T13:05:35;41.78;38.95;47.95;;
61095;Laerm;20450;49.074;9.158;2022-11-30T13:08:14;42.05;39.08;56.15;;
61095;Laerm;20450;49.074;9.158;2022-11-30T13:10:51;41.92;39.21;49.06;;
61095;Laerm;20450;49.074;9.158;2022-11-30T13:13:25;41.54;38.37;46.87;;
61095;Laerm;20450;49.074;9.158;2022-11-30T13:15:53;41.59;38.05;47.10;;
61095;Laerm;20450;49.074;9.158;2022-11-30T13:18:23;41.96;38.05;48.37;;
61095;Laerm;20450;49.074;9.158;2022-11-30T13:20:54;40.95;37.52;46.73;;
61095;Laerm;20450;49.074;9.158;2022-11-30T13:23:37;41.54;38.05;46.87;;
61095;Laerm;20450;49.074;9.158;2022-11-30T13:26:18;41.18;37.70;46.64;;
61095;Laerm;20450;49.074;9.158;2022-11-30T13:29:04;41.49;38.37;45.91;;
61095;Laerm;20450;49.074;9.158;2022-11-30T13:31:42;41.86;37.70;46.87;;
61095;Laerm;20450;49.074;9.158;2022-11-30T13:34:24;42.10;38.81;49.39;;
61095;Laerm;20450;49.074;9.158;2022-11-30T13:37:01;42.06;39.21;46.18;;
61095;Laerm;20450;49.074;9.158;2022-11-30T13:39:46;41.28;38.21;46.40;;
61095;Laerm;20450;49.074;9.158;2022-11-30T13:42:34;41.30;36.91;52.92;;
61095;Laerm;20450;49.074;9.158;2022-11-30T13:45:30;41.41;38.05;46.52;;
61095;Laerm;20450;49.074;9.158;2022-11-30T13:48:14;40.74;37.52;45.17;;
61095;Laerm;20450;49.074;9.158;2022-11-30T13:50:45;42.85;37.70;49.14;;
61095;Laerm;20450;49.074;9.158;2022-11-30T13:53:24;43.69;40.98;47.40;;
61095;Laerm;20450;49.074;9.158;2022-11-30T13:56:32;43.49;40.03;57.63;;
61095;Laerm;20450;49.074;9.158;2022-11-30T13:59:33;43.92;41.22;52.65;;
61095;Laerm;20450;49.074;9.158;2022-11-30T14:05:35;41.97;38.95;46.02;;
61095;Laerm;20450;49.074;9.158;2022-11-30T14:08:30;42.10;38.95;51.79;;
61095;Laerm;20450;49.074;9.158;2022-11-30T14:11:45;42.14;38.52;51.12;;
61095;Laerm;20450;49.074;9.158;2022-11-30T14:14:45;42.55;38.81;53.10;;
61095;Laerm;20450;49.074;9.158;2022-11-30T14:17:19;42.42;38.52;52.97;;